Time;durP1;ratioP1;P1;durP2;ratioP2;P2;SDS_P1;SDS_P2;PMS_P1;PMS_P2;Temp;Humidity;BMP_temperature;BMP_pressure;BME280_temperature;BME280_humidity;BME280_pressure;Samples;Min_cycle;Max_cycle;Signal;HPM_P1;HPM_P2
2023/02/18 00:01:40;;;;;;;2.33;2.13;;;10.10;99.90;;;;;;5044787;28;20564;-71
2023/02/18 00:04:09;;;;;;;2.80;2.47;;;10.10;99.90;;;;;;5035152;28;20453;-71
2023/02/18 00:06:38;;;;;;;2.67;2.30;;;10.10;99.90;;;;;;5042647;28;20485;-71
2023/02/18 00:09:07;;;;;;;1.77;1.50;;;10.10;99.90;;;;;;5046121;28;20845;-71
2023/02/18 00:11:37;;;;;;;1.87;1.70;;;10.10;99.90;;;;;;5032891;28;20478;-71
2023/02/18 00:14:08;;;;;;;2.50;2.20;;;10.10;99.90;;;;;;5042620;28;20448;-71
2023/02/18 00:16:36;;;;;;;3.63;1.90;;;10.10;99.90;;;;;;5045180;28;20483;-71
2023/02/18 00:19:08;;;;;;;1.90;1.80;;;10.10;99.90;;;;;;5041915;28;20537;-71
2023/02/18 00:21:36;;;;;;;2.07;1.83;;;10.10;99.90;;;;;;5039182;28;20532;-71
2023/02/18 00:24:06;;;;;;;1.73;1.63;;;10.10;99.90;;;;;;5044764;28;20448;-71
2023/02/18 00:26:35;;;;;;;2.37;2.10;;;10.10;99.90;;;;;;5035275;28;20502;-71
2023/02/18 00:29:04;;;;;;;2.43;2.23;;;10.10;99.90;;;;;;5045319;28;20572;-71
2023/02/18 00:31:34;;;;;;;2.20;2.00;;;10.10;99.90;;;;;;5045843;28;20477;-71
2023/02/18 00:34:04;;;;;;;2.20;2.00;;;10.10;99.90;;;;;;5047614;28;20458;-71
2023/02/18 00:36:36;;;;;;;2.90;1.73;;;10.10;99.90;;;;;;5044935;28;20490;-71
2023/02/18 00:39:07;;;;;;;4.47;2.20;;;10.10;99.90;;;;;;5045513;28;20450;-71
2023/02/18 00:41:36;;;;;;;2.20;2.00;;;10.10;99.90;;;;;;5046518;28;20569;-71
2023/02/18 00:44:05;;;;;;;2.50;2.30;;;10.10;99.90;;;;;;5047109;28;21035;-71
2023/02/18 00:46:35;;;;;;;2.37;1.73;;;10.10;99.90;;;;;;5048290;28;20554;-71
2023/02/18 00:49:04;;;;;;;2.63;2.33;;;10.10;99.90;;;;;;5046718;28;20551;-71
2023/02/18 00:51:35;;;;;;;2.07;1.87;;;10.10;99.90;;;;;;5043709;28;20473;-71
2023/02/18 00:54:03;;;;;;;2.20;1.77;;;10.10;99.90;;;;;;5066918;28;20449;-71
2023/02/18 00:56:32;;;;;;;2.57;2.37;;;10.10;99.90;;;;;;5067716;28;20475;-71
2023/02/18 00:59:00;;;;;;;3.47;2.67;;;10.10;99.90;;;;;;5042226;28;20466;-71
2023/02/18 01:01:29;;;;;;;2.03;1.80;;;10.10;99.90;;;;;;5043781;28;20483;-71
2023/02/18 01:03:57;;;;;;;2.40;1.80;;;10.10;99.90;;;;;;5056953;28;20470;-71
2023/02/18 01:06:25;;;;;;;3.30;1.90;;;10.10;99.90;;;;;;5035544;28;20487;-71
2023/02/18 01:08:55;;;;;;;2.50;2.30;;;10.10;99.90;;;;;;5050369;28;20428;-71
2023/02/18 01:11:24;;;;;;;2.57;2.07;;;10.10;99.90;;;;;;5047340;28;20507;-71
2023/02/18 01:13:52;;;;;;;2.47;2.13;;;10.10;99.90;;;;;;5048907;28;20524;-71
2023/02/18 01:16:21;;;;;;;3.50;2.17;;;10.10;99.90;;;;;;5045251;28;20476;-71
2023/02/18 01:18:49;;;;;;;1.97;1.80;;;10.10;99.90;;;;;;5045724;28;20490;-71
2023/02/18 01:21:18;;;;;;;2.53;2.20;;;10.10;99.90;;;;;;5046764;28;20476;-71
2023/02/18 01:23:46;;;;;;;1.90;1.70;;;10.10;99.90;;;;;;5046698;28;20463;-71
2023/02/18 01:26:17;;;;;;;2.57;2.37;;;10.10;99.90;;;;;;5045219;28;20544;-71
2023/02/18 01:28:46;;;;;;;2.80;2.60;;;10.10;99.90;;;;;;5048368;28;20882;-71
2023/02/18 01:31:15;;;;;;;2.20;2.00;;;10.10;99.90;;;;;;5066429;28;20453;-71
2023/02/18 01:33:44;;;;;;;2.27;2.07;;;10.10;99.90;;;;;;5046534;28;20461;-71
2023/02/18 01:36:13;;;;;;;1.87;1.60;;;10.10;99.90;;;;;;5047971;28;20540;-71
2023/02/18 01:38:41;;;;;;;1.90;1.60;;;10.10;99.90;;;;;;5049027;28;20450;-71
2023/02/18 01:41:10;;;;;;;2.40;1.80;;;10.10;99.90;;;;;;5042321;28;20489;-71
2023/02/18 01:43:40;;;;;;;2.70;2.23;;;10.10;99.90;;;;;;5049762;28;20509;-71
2023/02/18 01:46:18;;;;;;;1.83;1.53;;;10.10;99.90;;;;;;5048005;28;20897;-71
2023/02/18 01:48:51;;;;;;;2.10;1.90;;;10.10;99.90;;;;;;5043979;28;20459;-71
2023/02/18 01:51:23;;;;;;;2.03;1.70;;;10.10;99.90;;;;;;5048244;28;20789;-71
2023/02/18 01:53:57;;;;;;;1.93;1.73;;;10.10;99.90;;;;;;5066372;28;20981;-71
2023/02/18 01:56:30;;;;;;;2.70;2.10;;;10.10;99.90;;;;;;5044277;28;20549;-71
2023/02/18 01:59:04;;;;;;;1.67;1.57;;;10.10;99.90;;;;;;5048009;28;20437;-71
2023/02/18 02:01:33;;;;;;;1.83;1.53;;;10.10;99.90;;;;;;5048285;28;20498;-71
2023/02/18 02:04:02;;;;;;;2.47;1.90;;;10.10;99.90;;;;;;5046322;28;20515;-71
2023/02/18 02:06:30;;;;;;;2.47;1.70;;;10.10;99.90;;;;;;5041370;28;20468;-71
2023/02/18 02:09:03;;;;;;;1.70;1.50;;;10.10;99.90;;;;;;5045277;28;20443;-71
2023/02/18 02:11:56;;;;;;;1.73;1.63;;;10.10;99.90;;;;;;5047552;28;20970;-71
2023/02/18 02:14:40;;;;;;;1.70;1.60;;;10.10;99.90;;;;;;5037286;28;20438;-71
2023/02/18 02:17:19;;;;;;;2.00;1.80;;;10.10;99.90;;;;;;5047719;28;20907;-71
2023/02/18 02:20:36;;;;;;;1.80;1.43;;;10.10;99.90;;;;;;5047538;28;20507;-71
2023/02/18 02:23:40;;;;;;;1.73;1.63;;;10.10;99.90;;;;;;5067259;28;21029;-71
2023/02/18 02:26:36;;;;;;;2.10;1.77;;;10.10;99.90;;;;;;5062198;28;20890;-71
2023/02/18 02:29:45;;;;;;;1.40;1.30;;;10.10;99.90;;;;;;5027549;28;20483;-71
2023/02/18 02:32:45;;;;;;;1.83;1.50;;;10.10;99.90;;;;;;5046569;28;20572;-71
2023/02/18 02:35:21;;;;;;;1.20;1.10;;;10.10;99.90;;;;;;5062611;28;20578;-71
2023/02/18 02:37:59;;;;;;;1.57;1.47;;;10.10;99.90;;;;;;5042389;28;20441;-71
2023/02/18 02:40:36;;;;;;;1.50;1.33;;;10.10;99.90;;;;;;5040292;28;20472;-71
2023/02/18 02:43:13;;;;;;;1.30;1.20;;;10.10;99.90;;;;;;5049079;28;20831;-71
2023/02/18 02:45:50;;;;;;;1.90;1.70;;;10.10;99.90;;;;;;5037558;28;20460;-71
2023/02/18 02:48:28;;;;;;;2.17;1.90;;;10.10;99.90;;;;;;5062203;28;20432;-71
2023/02/18 02:51:06;;;;;;;1.83;1.50;;;10.10;99.90;;;;;;5035465;28;20473;-71
2023/02/18 02:53:37;;;;;;;1.57;1.47;;;10.10;99.90;;;;;;5038484;28;20519;-71
2023/02/18 02:56:05;;;;;;;1.40;1.30;;;10.10;99.90;;;;;;5061607;28;20480;-71
2023/02/18 02:58:37;;;;;;;1.47;1.17;;;10.10;99.90;;;;;;5047628;28;20491;-72
2023/02/18 03:01:20;;;;;;;1.03;0.93;;;10.10;99.90;;;;;;5045247;28;20479;-72
2023/02/18 03:04:04;;;;;;;1.40;1.30;;;10.10;99.90;;;;;;5055500;28;20447;-73
2023/02/18 03:06:50;;;;;;;1.17;1.07;;;10.10;99.90;;;;;;5045523;28;20487;-73
2023/02/18 03:09:26;;;;;;;1.97;1.20;;;10.10;99.90;;;;;;5046522;28;20471;-73
2023/02/18 03:12:02;;;;;;;1.17;1.07;;;10.10;99.90;;;;;;5042854;28;20511;-73
2023/02/18 03:14:42;;;;;;;1.80;1.50;;;10.10;99.90;;;;;;5044934;28;20536;-73
2023/02/18 03:17:18;;;;;;;1.63;1.50;;;10.10;99.90;;;;;;5047232;28;20480;-72
2023/02/18 03:19:52;;;;;;;1.23;1.10;;;10.10;99.90;;;;;;5052064;28;20437;-73
2023/02/18 03:22:26;;;;;;;1.00;0.90;;;10.10;99.90;;;;;;5048523;28;20571;-72
2023/02/18 03:24:59;;;;;;;1.23;1.13;;;10.10;99.90;;;;;;5047000;28;20494;-73
2023/02/18 03:27:31;;;;;;;2.00;1.30;;;10.10;99.90;;;;;;5042208;28;20525;-72
2023/02/18 03:30:04;;;;;;;1.23;1.13;;;10.10;99.90;;;;;;5041827;28;20488;-73
2023/02/18 03:32:35;;;;;;;1.30;1.20;;;10.10;99.90;;;;;;5066958;28;20473;-72
2023/02/18 03:35:11;;;;;;;1.43;1.33;;;10.10;99.90;;;;;;5041477;28;20841;-73
2023/02/18 03:37:46;;;;;;;1.20;1.10;;;10.10;99.90;;;;;;5041337;28;20471;-73
2023/02/18 03:40:17;;;;;;;1.23;1.13;;;10.10;99.90;;;;;;5049415;28;20424;-72
2023/02/18 03:42:45;;;;;;;1.20;1.10;;;10.10;99.90;;;;;;5044365;28;20562;-73
2023/02/18 03:45:14;;;;;;;1.00;0.80;;;10.10;99.90;;;;;;5047450;28;20460;-72
2023/02/18 03:47:42;;;;;;;1.60;1.17;;;10.10;99.90;;;;;;5047819;28;20444;-72
2023/02/18 03:50:11;;;;;;;0.80;0.80;;;10.10;99.90;;;;;;5051775;28;20527;-73
2023/02/18 03:52:40;;;;;;;1.17;1.07;;;10.10;99.90;;;;;;5044582;28;20492;-73
2023/02/18 03:55:09;;;;;;;1.27;0.90;;;10.10;99.90;;;;;;5041096;28;20468;-72
2023/02/18 03:57:37;;;;;;;1.33;1.10;;;10.10;99.90;;;;;;5044946;28;20481;-73
2023/02/18 04:00:07;;;;;;;1.57;1.17;;;10.10;99.90;;;;;;5047834;28;21018;-73
2023/02/18 04:02:42;;;;;;;1.20;0.90;;;10.10;99.90;;;;;;5047446;28;20469;-73
2023/02/18 04:05:12;;;;;;;1.00;0.90;;;10.10;99.90;;;;;;5046066;28;20459;-72
2023/02/18 04:07:42;;;;;;;1.17;1.03;;;10.10;99.90;;;;;;5047572;28;20448;-72
2023/02/18 04:10:11;;;;;;;1.17;1.03;;;10.10;99.90;;;;;;5047460;28;20459;-73
2023/02/18 04:12:39;;;;;;;1.03;0.93;;;10.10;99.90;;;;;;5046042;28;20977;-72
2023/02/18 04:15:09;;;;;;;0.77;0.73;;;10.10;99.90;;;;;;5046499;28;20531;-73
2023/02/18 04:17:37;;;;;;;0.93;0.87;;;10.10;99.90;;;;;;5048683;28;21069;-73
2023/02/18 04:20:07;;;;;;;1.00;0.80;;;10.10;99.90;;;;;;5043171;28;20555;-73
2023/02/18 04:22:35;;;;;;;1.00;0.90;;;10.10;99.90;;;;;;5061347;28;20482;-73
2023/02/18 04:25:06;;;;;;;1.30;0.83;;;10.10;99.90;;;;;;5043356;28;20482;-73
2023/02/18 04:27:34;;;;;;;1.10;1.00;;;10.10;99.90;;;;;;5044812;28;20832;-73
2023/02/18 04:30:03;;;;;;;1.13;1.03;;;10.10;99.90;;;;;;5051556;28;20459;-73
2023/02/18 04:32:31;;;;;;;1.20;1.10;;;10.10;99.90;;;;;;5049529;28;20564;-72
2023/02/18 04:34:59;;;;;;;0.93;0.83;;;10.10;99.90;;;;;;5049917;28;20517;-73
2023/02/18 04:37:28;;;;;;;1.03;0.93;;;10.10;99.90;;;;;;5041216;28;20481;-73
2023/02/18 04:39:56;;;;;;;1.00;0.70;;;10.10;99.90;;;;;;5035005;28;20697;-73
2023/02/18 04:42:26;;;;;;;1.47;1.30;;;10.10;99.90;;;;;;5041913;28;20568;-73
2023/02/18 04:44:54;;;;;;;1.20;0.70;;;10.10;99.90;;;;;;5050199;28;20459;-73
2023/02/18 04:47:23;;;;;;;1.00;0.90;;;10.10;99.90;;;;;;5047495;28;20460;-73
2023/02/18 04:49:51;;;;;;;0.73;0.73;;;10.10;99.90;;;;;;5054744;28;20486;-73
2023/02/18 04:52:19;;;;;;;0.93;0.83;;;10.10;99.90;;;;;;5067498;28;20479;-73
2023/02/18 04:54:48;;;;;;;0.93;0.67;;;10.10;99.90;;;;;;5043668;28;20482;-72
2023/02/18 04:57:16;;;;;;;0.77;0.70;;;10.10;99.90;;;;;;5046830;28;20471;-73
2023/02/18 04:59:46;;;;;;;1.20;1.00;;;10.10;99.90;;;;;;5050041;28;20542;-72
2023/02/18 05:02:14;;;;;;;1.33;0.90;;;10.10;99.90;;;;;;5047129;28;20500;-72
2023/02/18 05:04:43;;;;;;;1.00;0.90;;;10.10;99.90;;;;;;5047903;28;20480;-73
2023/02/18 05:07:11;;;;;;;1.00;0.90;;;10.10;99.90;;;;;;5049890;28;20509;-73
2023/02/18 05:09:39;;;;;;;1.07;0.87;;;10.10;99.90;;;;;;5044758;28;20448;-72
2023/02/18 05:12:08;;;;;;;0.70;0.70;;;10.10;99.90;;;;;;5040008;28;20494;-72
2023/02/18 05:14:36;;;;;;;1.23;1.00;;;10.10;99.90;;;;;;5041074;28;20897;-73
2023/02/18 05:17:06;;;;;;;0.87;0.87;;;10.10;99.90;;;;;;5046745;28;20481;-73
2023/02/18 05:19:34;;;;;;;1.40;1.17;;;10.10;99.90;;;;;;5046999;28;20447;-72
2023/02/18 05:22:03;;;;;;;1.23;0.80;;;10.10;99.90;;;;;;5047743;28;21003;-73
2023/02/18 05:24:31;;;;;;;1.73;0.70;;;10.10;99.90;;;;;;5051331;28;20453;-73
2023/02/18 05:26:59;;;;;;;0.80;0.80;;;10.10;99.90;;;;;;5044495;28;21051;-73
2023/02/18 05:29:28;;;;;;;1.00;0.90;;;10.10;99.90;;;;;;5046907;28;20467;-73
2023/02/18 05:31:56;;;;;;;0.87;0.87;;;10.10;99.90;;;;;;5046456;28;20581;-73
2023/02/18 05:34:26;;;;;;;0.83;0.80;;;10.10;99.90;;;;;;5039787;28;20443;-74
2023/02/18 05:36:54;;;;;;;0.90;0.80;;;10.10;99.90;;;;;;5046988;28;20470;-73
2023/02/18 05:39:23;;;;;;;1.20;1.10;;;10.10;99.90;;;;;;5043539;28;22473;-73
2023/02/18 05:41:51;;;;;;;0.93;0.83;;;10.10;99.90;;;;;;5066228;28;20982;-73
2023/02/18 05:44:32;;;;;;;0.93;0.87;;;10.10;99.90;;;;;;5047882;28;20443;-73
2023/02/18 05:47:03;;;;;;;0.97;0.70;;;10.10;99.90;;;;;;5048244;28;20489;-73
2023/02/18 05:49:34;;;;;;;1.00;0.87;;;10.10;99.90;;;;;;5048053;28;20438;-73
2023/02/18 05:52:04;;;;;;;0.90;0.80;;;10.10;99.90;;;;;;5068093;28;20570;-72
2023/02/18 05:54:32;;;;;;;0.80;0.63;;;10.10;99.90;;;;;;5044189;28;20445;-72
2023/02/18 05:57:01;;;;;;;0.80;0.60;;;10.10;99.90;;;;;;5040738;28;21021;-73
2023/02/18 05:59:29;;;;;;;0.93;0.70;;;10.10;99.90;;;;;;5039946;28;20498;-73
2023/02/18 06:01:59;;;;;;;0.97;0.70;;;10.10;99.90;;;;;;5048636;28;20463;-73
2023/02/18 06:04:28;;;;;;;0.60;0.53;;;10.10;99.90;;;;;;5047015;28;20866;-73
2023/02/18 06:06:58;;;;;;;1.10;0.80;;;10.10;99.90;;;;;;5045922;28;20509;-73
2023/02/18 06:09:26;;;;;;;1.50;1.10;;;10.10;99.90;;;;;;5048602;28;20476;-73
2023/02/18 06:11:54;;;;;;;0.73;0.73;;;10.10;99.90;;;;;;5046583;28;21063;-73
2023/02/18 06:14:23;;;;;;;0.80;0.73;;;10.10;99.90;;;;;;5040670;28;20778;-73
2023/02/18 06:16:51;;;;;;;1.00;0.80;;;10.10;99.90;;;;;;5045422;28;20511;-73
2023/02/18 06:19:19;;;;;;;1.27;1.07;;;10.10;99.90;;;;;;5029915;28;20481;-73
2023/02/18 06:21:48;;;;;;;1.10;1.00;;;10.10;99.90;;;;;;5047444;28;20516;-73
2023/02/18 06:24:17;;;;;;;1.33;0.80;;;10.10;99.90;;;;;;5048648;28;20560;-73
2023/02/18 06:26:46;;;;;;;0.90;0.80;;;10.10;99.90;;;;;;5044220;28;20560;-73
2023/02/18 06:29:14;;;;;;;0.90;0.50;;;10.10;99.90;;;;;;5048128;28;20451;-73
2023/02/18 06:31:43;;;;;;;1.00;0.70;;;10.10;99.90;;;;;;5045197;28;20561;-73
2023/02/18 06:34:11;;;;;;;0.83;0.50;;;10.10;99.90;;;;;;5052876;28;20445;-73
2023/02/18 06:36:40;;;;;;;0.80;0.73;;;10.10;99.90;;;;;;5041013;28;20574;-73
2023/02/18 06:39:09;;;;;;;0.80;0.80;;;10.10;99.90;;;;;;5040445;28;20463;-73
2023/02/18 06:41:39;;;;;;;1.13;1.00;;;10.10;99.90;;;;;;5043788;28;20532;-73
2023/02/18 06:44:08;;;;;;;0.80;0.60;;;10.10;99.90;;;;;;5047164;28;20437;-73
2023/02/18 06:46:37;;;;;;;0.80;0.63;;;10.10;99.90;;;;;;5061477;28;20476;-72
2023/02/18 06:49:07;;;;;;;0.70;0.60;;;10.10;99.90;;;;;;5041234;28;20477;-72
2023/02/18 06:51:36;;;;;;;0.80;0.70;;;10.10;99.90;;;;;;5047526;28;20476;-72
2023/02/18 06:54:05;;;;;;;0.70;0.60;;;10.10;99.90;;;;;;5066500;28;20432;-73
2023/02/18 06:56:34;;;;;;;0.90;0.90;;;10.10;99.90;;;;;;5036474;28;20481;-72
2023/02/18 06:59:04;;;;;;;1.27;0.70;;;10.10;99.90;;;;;;5039462;28;20490;-73
2023/02/18 07:01:32;;;;;;;0.90;0.73;;;10.10;99.90;;;;;;5047996;28;20470;-73
2023/02/18 07:04:01;;;;;;;0.70;0.50;;;10.10;99.90;;;;;;5049493;28;20477;-73
2023/02/18 07:06:30;;;;;;;0.60;0.50;;;10.10;99.90;;;;;;5045326;28;21161;-72
2023/02/18 07:08:59;;;;;;;0.93;0.70;;;10.10;99.90;;;;;;5048003;28;20444;-72
2023/02/18 07:11:28;;;;;;;0.60;0.53;;;10.10;99.90;;;;;;5066107;28;20448;-72
2023/02/18 07:13:58;;;;;;;0.63;0.57;;;10.10;99.90;;;;;;5055137;28;20527;-72
2023/02/18 07:16:29;;;;;;;0.63;0.53;;;10.10;99.90;;;;;;5058237;28;20752;-73
2023/02/18 07:18:58;;;;;;;0.93;0.70;;;10.10;99.90;;;;;;5039828;28;21071;-73
2023/02/18 07:21:27;;;;;;;0.70;0.70;;;10.10;99.90;;;;;;5047382;28;20545;-73
2023/02/18 07:23:56;;;;;;;1.10;0.80;;;10.10;99.90;;;;;;5042285;28;20506;-73
2023/02/18 07:26:24;;;;;;;0.50;0.40;;;10.10;99.90;;;;;;5046326;28;20468;-73
2023/02/18 07:28:53;;;;;;;1.33;0.90;;;10.10;99.90;;;;;;5064891;28;20469;-73
2023/02/18 07:31:22;;;;;;;1.00;0.90;;;10.10;99.90;;;;;;5065038;28;20922;-72
2023/02/18 07:33:53;;;;;;;0.90;0.90;;;10.10;99.90;;;;;;5042897;28;20454;-73
2023/02/18 07:36:22;;;;;;;1.50;0.70;;;10.10;99.90;;;;;;5047076;28;20518;-72
2023/02/18 07:38:51;;;;;;;0.60;0.50;;;10.10;99.90;;;;;;5063868;28;20460;-73
2023/02/18 07:41:22;;;;;;;0.73;0.70;;;10.10;99.90;;;;;;5047151;28;20806;-73
2023/02/18 07:43:53;;;;;;;0.80;0.60;;;10.10;99.90;;;;;;5043993;28;20852;-72
2023/02/18 07:46:23;;;;;;;0.70;0.70;;;10.10;99.90;;;;;;5039016;28;20573;-72
2023/02/18 07:48:53;;;;;;;0.87;0.80;;;10.10;99.90;;;;;;5043446;28;20444;-72
2023/02/18 07:51:22;;;;;;;0.57;0.53;;;10.10;99.90;;;;;;5041332;28;20562;-72
2023/02/18 07:53:51;;;;;;;0.80;0.70;;;10.10;99.90;;;;;;5048045;28;20470;-72
2023/02/18 07:56:19;;;;;;;0.87;0.83;;;10.10;99.90;;;;;;5047450;28;20799;-72
2023/02/18 07:58:49;;;;;;;0.80;0.73;;;10.10;99.90;;;;;;5064929;28;20947;-72
2023/02/18 08:01:18;;;;;;;1.27;0.90;;;10.10;99.90;;;;;;5044595;28;20476;-72
2023/02/18 08:03:49;;;;;;;1.60;0.80;;;10.10;99.90;;;;;;5042338;28;20451;-72
2023/02/18 08:06:27;;;;;;;1.13;0.80;;;10.10;99.90;;;;;;5045349;28;20500;-72
2023/02/18 08:08:56;;;;;;;0.80;0.70;;;10.10;99.90;;;;;;5039926;28;20486;-73
2023/02/18 08:11:24;;;;;;;0.97;0.80;;;10.10;99.90;;;;;;5043782;28;20473;-72
2023/02/18 08:13:53;;;;;;;1.03;0.77;;;10.10;99.90;;;;;;5042180;28;20454;-72
2023/02/18 08:16:22;;;;;;;0.77;0.50;;;10.10;99.90;;;;;;5044559;28;20471;-73
2023/02/18 08:18:54;;;;;;;1.00;0.90;;;10.10;99.90;;;;;;5048476;28;20470;-73
2023/02/18 08:21:26;;;;;;;1.00;0.70;;;10.10;99.90;;;;;;5036298;28;20567;-72
2023/02/18 08:23:54;;;;;;;0.73;0.73;;;10.10;99.90;;;;;;5044980;28;20523;-72
2023/02/18 08:26:22;;;;;;;1.17;1.07;;;10.10;99.90;;;;;;5040121;28;20471;-72
2023/02/18 08:28:51;;;;;;;1.23;1.03;;;10.10;99.90;;;;;;5057452;28;20497;-71
2023/02/18 08:31:21;;;;;;;1.90;1.10;;;10.10;99.90;;;;;;5055753;28;20435;-71
2023/02/18 08:33:49;;;;;;;1.10;0.90;;;10.10;99.90;;;;;;5042927;28;20444;-71
2023/02/18 08:36:18;;;;;;;2.87;1.23;;;10.10;99.90;;;;;;5048126;28;20509;-71
2023/02/18 08:38:48;;;;;;;1.03;0.73;;;10.10;99.90;;;;;;5043707;28;20551;-71
2023/02/18 08:41:18;;;;;;;1.57;0.87;;;10.10;99.90;;;;;;5046902;28;20610;-71
2023/02/18 08:43:47;;;;;;;1.20;1.00;;;10.10;99.90;;;;;;5043020;28;20480;-71
2023/02/18 08:46:16;;;;;;;1.20;0.80;;;10.10;99.90;;;;;;5044040;28;20569;-71
2023/02/18 08:49:00;;;;;;;1.20;0.83;;;10.10;99.90;;;;;;5050358;28;20448;-71
2023/02/18 08:51:30;;;;;;;1.10;0.83;;;10.10;99.90;;;;;;5026828;28;20452;-71
2023/02/18 08:54:00;;;;;;;1.20;1.10;;;10.10;99.90;;;;;;5059288;28;20829;-71
2023/02/18 08:56:28;;;;;;;1.37;1.00;;;10.10;99.90;;;;;;5035581;28;20465;-70
2023/02/18 08:58:58;;;;;;;2.10;1.13;;;10.10;99.90;;;;;;5045009;28;20959;-71
2023/02/18 09:01:26;;;;;;;2.83;0.87;;;10.10;99.90;;;;;;5045496;28;20475;-71
2023/02/18 09:03:55;;;;;;;2.10;1.20;;;10.10;99.90;;;;;;5043848;28;20445;-71
2023/02/18 09:06:23;;;;;;;1.70;0.93;;;10.10;99.90;;;;;;5039734;28;20904;-71
2023/02/18 09:08:52;;;;;;;2.30;0.93;;;10.10;99.90;;;;;;5047434;28;20512;-71
2023/02/18 09:11:22;;;;;;;1.20;1.00;;;10.10;99.90;;;;;;5046188;28;20563;-71
2023/02/18 09:13:51;;;;;;;1.83;0.80;;;10.10;99.90;;;;;;5050146;28;20524;-71
2023/02/18 09:16:20;;;;;;;1.20;1.00;;;10.10;99.90;;;;;;5035118;28;20468;-71
2023/02/18 09:18:49;;;;;;;1.20;1.10;;;10.10;99.90;;;;;;5044427;28;20543;-71
2023/02/18 09:21:19;;;;;;;1.73;1.10;;;10.10;99.90;;;;;;5044376;28;21001;-71
2023/02/18 09:23:48;;;;;;;1.30;1.10;;;10.10;99.90;;;;;;5042132;28;20994;-71
2023/02/18 09:26:20;;;;;;;2.03;1.00;;;10.10;99.90;;;;;;5044241;28;20476;-71
2023/02/18 09:28:50;;;;;;;1.93;1.03;;;10.10;99.90;;;;;;5049413;28;20487;-71
2023/02/18 09:31:20;;;;;;;2.03;1.10;;;10.10;99.90;;;;;;5042713;28;20515;-71
2023/02/18 09:33:52;;;;;;;1.83;1.13;;;10.10;99.90;;;;;;5042161;28;21031;-71
2023/02/18 09:36:21;;;;;;;1.60;0.80;;;10.10;99.90;;;;;;5046715;28;20807;-71
2023/02/18 09:38:49;;;;;;;1.27;0.97;;;10.10;99.90;;;;;;5066444;28;20541;-71
2023/02/18 09:41:29;;;;;;;1.63;1.20;;;10.10;99.90;;;;;;5047329;28;20978;-71
2023/02/18 09:44:02;;;;;;;1.80;0.90;;;10.10;99.90;;;;;;5045000;28;20498;-71
2023/02/18 09:46:34;;;;;;;5.03;1.40;;;10.10;99.90;;;;;;5041104;28;20483;-71
2023/02/18 09:49:06;;;;;;;1.20;1.03;;;10.10;99.90;;;;;;5058528;28;20480;-71
2023/02/18 09:51:34;;;;;;;1.80;1.10;;;10.10;99.90;;;;;;5041483;28;20849;-71
2023/02/18 09:54:03;;;;;;;1.20;1.10;;;10.10;99.90;;;;;;5047001;28;20499;-71
2023/02/18 09:56:34;;;;;;;1.53;1.20;;;10.10;99.90;;;;;;5045224;28;21062;-71
2023/02/18 09:59:08;;;;;;;2.30;0.73;;;10.10;99.90;;;;;;5045704;28;20448;-71
2023/02/18 10:01:39;;;;;;;1.70;1.30;;;10.10;99.90;;;;;;5046848;28;20974;-71
2023/02/18 10:04:17;;;;;;;1.80;1.00;;;10.10;99.90;;;;;;5040275;28;21030;-71
2023/02/18 10:06:48;;;;;;;1.50;1.17;;;10.10;99.90;;;;;;5044108;28;20468;-71
2023/02/18 10:09:22;;;;;;;1.37;1.20;;;10.10;99.90;;;;;;5045602;28;20860;-71
2023/02/18 10:11:55;;;;;;;2.40;1.17;;;10.10;99.90;;;;;;5044661;28;20467;-71
2023/02/18 10:14:26;;;;;;;1.90;1.60;;;10.10;99.90;;;;;;5046130;28;21036;-71
2023/02/18 10:16:54;;;;;;;2.23;1.30;;;10.10;99.90;;;;;;5045405;28;20948;-71
2023/02/18 10:19:29;;;;;;;1.33;1.10;;;10.10;99.90;;;;;;5048176;28;20445;-71
2023/02/18 10:21:58;;;;;;;1.13;1.03;;;10.10;99.90;;;;;;5048152;28;20606;-71
2023/02/18 10:24:31;;;;;;;2.50;1.13;;;10.10;99.90;;;;;;5048523;28;21014;-71
2023/02/18 10:27:00;;;;;;;1.70;1.30;;;10.10;99.90;;;;;;5047187;28;20515;-71
2023/02/18 10:29:31;;;;;;;3.13;1.40;;;10.10;99.90;;;;;;5033626;28;20972;-71
2023/02/18 10:32:05;;;;;;;2.23;1.37;;;10.10;99.90;;;;;;5046983;28;20471;-71
2023/02/18 10:34:41;;;;;;;1.83;1.00;;;10.10;99.90;;;;;;5035015;28;20474;-71
2023/02/18 10:37:27;;;;;;;2.27;1.30;;;10.10;99.90;;;;;;5045091;28;20555;-71
2023/02/18 10:40:06;;;;;;;3.70;1.93;;;10.10;99.90;;;;;;5042895;28;20457;-71
2023/02/18 10:42:45;;;;;;;4.40;1.87;;;10.10;99.90;;;;;;5057982;28;20465;-71
2023/02/18 10:45:23;;;;;;;1.47;1.10;;;10.10;99.90;;;;;;5046583;28;20579;-71
2023/02/18 10:48:06;;;;;;;1.67;1.23;;;10.10;99.90;;;;;;5048211;28;20534;-71
2023/02/18 10:50:38;;;;;;;1.60;1.30;;;10.10;99.90;;;;;;5041334;28;22041;-71
2023/02/18 10:53:13;;;;;;;1.43;1.30;;;10.10;99.90;;;;;;5032060;28;20782;-71
2023/02/18 10:55:44;;;;;;;1.47;1.30;;;10.10;99.90;;;;;;5041496;28;20468;-71
2023/02/18 10:58:28;;;;;;;3.60;1.30;;;10.10;99.90;;;;;;5050104;28;20555;-71
2023/02/18 11:00:58;;;;;;;2.00;0.83;;;10.10;99.90;;;;;;5023969;28;20536;-71
2023/02/18 11:03:36;;;;;;;3.90;1.10;;;10.10;99.90;;;;;;5043587;28;20955;-71
2023/02/18 11:06:07;;;;;;;1.60;1.40;;;10.10;99.90;;;;;;5047529;28;20886;-71
2023/02/18 11:08:42;;;;;;;1.03;0.93;;;10.10;99.90;;;;;;5048314;28;20435;-71
2023/02/18 11:11:16;;;;;;;1.10;1.00;;;10.10;99.90;;;;;;5044761;28;20474;-71
2023/02/18 11:13:45;;;;;;;1.33;1.23;;;10.20;99.90;;;;;;5064035;28;20462;-71
2023/02/18 11:16:15;;;;;;;1.83;1.17;;;10.20;99.90;;;;;;5047520;28;20488;-71
2023/02/18 11:18:45;;;;;;;1.20;1.10;;;10.10;99.90;;;;;;5061368;28;20965;-71
2023/02/18 11:21:30;;;;;;;1.67;1.57;;;10.10;99.90;;;;;;5047188;28;20476;-71
2023/02/18 11:24:08;;;;;;;1.20;1.10;;;10.10;99.90;;;;;;5048097;28;20440;-71
2023/02/18 11:26:39;;;;;;;2.27;1.20;;;10.10;99.90;;;;;;5046289;28;20487;-71
2023/02/18 11:29:15;;;;;;;1.30;0.93;;;10.10;99.90;;;;;;5062355;28;20833;-71
2023/02/18 11:31:47;;;;;;;2.00;1.27;;;10.10;99.90;;;;;;5064816;28;20529;-71
2023/02/18 11:34:20;;;;;;;1.43;1.30;;;10.10;99.90;;;;;;5044815;28;20445;-71
2023/02/18 11:36:51;;;;;;;4.03;1.50;;;10.20;99.90;;;;;;5046114;28;20571;-71
2023/02/18 11:39:23;;;;;;;2.30;1.10;;;10.10;99.90;;;;;;5045046;28;20541;-71
2023/02/18 11:41:56;;;;;;;1.30;0.80;;;10.10;99.90;;;;;;5045984;28;20554;-71
2023/02/18 11:44:29;;;;;;;1.60;1.00;;;10.10;99.90;;;;;;5059690;28;20457;-71
2023/02/18 11:47:02;;;;;;;1.27;1.17;;;10.10;99.90;;;;;;5042499;28;20490;-71
2023/02/18 11:49:32;;;;;;;2.80;0.90;;;10.10;99.90;;;;;;5044041;28;20873;-71
2023/02/18 11:52:06;;;;;;;1.13;1.03;;;10.10;99.90;;;;;;5044876;28;20579;-71
2023/02/18 11:54:34;;;;;;;0.90;0.90;;;10.10;99.90;;;;;;5036214;28;20437;-71
2023/02/18 11:57:05;;;;;;;1.60;1.20;;;10.10;99.90;;;;;;5040588;28;20475;-71
2023/02/18 11:59:37;;;;;;;1.20;1.10;;;10.10;99.90;;;;;;5041444;28;20436;-71
2023/02/18 12:02:27;;;;;;;1.50;0.67;;;10.10;99.90;;;;;;5039419;28;20493;-71
2023/02/18 12:05:01;;;;;;;1.30;1.20;;;10.10;99.90;;;;;;5044638;28;20984;-71
2023/02/18 12:07:39;;;;;;;1.17;0.80;;;10.10;99.90;;;;;;5041168;28;20672;-71
2023/02/18 12:10:13;;;;;;;1.20;0.80;;;10.10;99.90;;;;;;5047088;28;20477;-71
2023/02/18 12:12:48;;;;;;;1.60;1.17;;;10.20;99.90;;;;;;5046760;28;20475;-71
2023/02/18 12:15:24;;;;;;;1.27;1.10;;;10.10;99.90;;;;;;5047295;28;20459;-71
2023/02/18 12:18:21;;;;;;;1.60;1.50;;;10.10;99.90;;;;;;5046525;28;20428;-72
2023/02/18 12:21:05;;;;;;;3.97;0.90;;;10.10;99.90;;;;;;5041164;28;20505;-73
2023/02/18 12:23:42;;;;;;;0.90;0.77;;;10.10;99.90;;;;;;5067010;28;20435;-72
2023/02/18 12:26:23;;;;;;;1.40;1.00;;;10.10;99.90;;;;;;5047199;28;20465;-73
2023/02/18 12:29:26;;;;;;;2.40;1.50;;;10.10;99.90;;;;;;5046161;28;20538;-73
2023/02/18 12:32:10;;;;;;;1.90;0.93;;;10.20;99.90;;;;;;5042612;28;20566;-73
2023/02/18 12:34:51;;;;;;;2.27;0.97;;;10.10;99.90;;;;;;5041598;28;20493;-73
2023/02/18 12:37:45;;;;;;;1.20;1.10;;;10.20;99.90;;;;;;5042447;28;20476;-73
2023/02/18 12:40:40;;;;;;;1.70;0.70;;;10.30;99.90;;;;;;5058192;28;20447;-73
2023/02/18 12:43:19;;;;;;;1.27;1.00;;;10.20;99.90;;;;;;5044762;28;20550;-73
2023/02/18 12:46:12;;;;;;;1.13;1.00;;;10.20;99.90;;;;;;5059853;28;20474;-73
2023/02/18 12:49:03;;;;;;;1.10;1.00;;;10.30;99.90;;;;;;5038736;28;21030;-73
2023/02/18 12:51:53;;;;;;;1.37;1.20;;;10.30;99.90;;;;;;5043781;28;20502;-73
2023/02/18 12:54:47;;;;;;;2.87;1.00;;;10.30;99.90;;;;;;5047224;28;20472;-73
2023/02/18 12:57:33;;;;;;;3.57;1.20;;;10.20;99.90;;;;;;5044813;28;20883;-73
2023/02/18 13:00:39;;;;;;;1.60;1.03;;;10.20;99.90;;;;;;5046605;28;20995;-73
2023/02/18 13:03:38;;;;;;;2.07;1.17;;;10.20;99.90;;;;;;5054080;28;20581;-72
2023/02/18 13:06:21;;;;;;;1.50;1.20;;;10.20;99.90;;;;;;5039154;28;20561;-73
2023/02/18 13:09:02;;;;;;;1.60;1.20;;;10.20;99.90;;;;;;5067027;28;20443;-73
2023/02/18 13:11:41;;;;;;;2.90;1.30;;;10.20;99.90;;;;;;5045103;28;20947;-73
2023/02/18 13:14:14;;;;;;;1.70;1.30;;;10.20;99.90;;;;;;5046985;28;20880;-71
2023/02/18 13:16:47;;;;;;;1.33;1.23;;;10.20;99.90;;;;;;5046776;28;20559;-71